Time;durP1;ratioP1;P1;durP2;ratioP2;P2;SDS_P1;SDS_P2;PMS_P1;PMS_P2;Temp;Humidity;BMP_temperature;BMP_pressure;BME280_temperature;BME280_humidity;BME280_pressure;Samples;Min_cycle;Max_cycle;Signal;HPM_P1;HPM_P2
2023/03/31 00:00:32;;;;;;;26.30;10.63;;;10.30;50.20;;;;;;5033058;28;20178;-71
2023/03/31 00:02:58;;;;;;;30.67;9.57;;;10.30;57.00;;;;;;5032663;28;20484;-71
2023/03/31 00:05:25;;;;;;;27.27;7.70;;;10.30;63.30;;;;;;5033988;28;20402;-70
2023/03/31 00:08:00;;;;;;;31.40;8.80;;;10.30;70.20;;;;;;5033382;28;20309;-74
2023/03/31 00:10:32;;;;;;;20.07;8.20;;;10.30;79.20;;;;;;5032879;28;20579;-74
2023/03/31 00:12:59;;;;;;;28.70;8.50;;;10.40;80.60;;;;;;5032514;28;20419;-71
2023/03/31 00:15:26;;;;;;;29.33;8.67;;;10.40;81.30;;;;;;5031740;28;20472;-74
2023/03/31 00:17:52;;;;;;;21.80;9.73;;;10.40;90.40;;;;;;5033714;28;20496;-71
2023/03/31 00:20:17;;;;;;;25.10;6.70;;;10.40;92.90;;;;;;5032912;28;20389;-70
2023/03/31 00:22:46;;;;;;;17.67;6.53;;;10.40;96.30;;;;;;5032001;28;20465;-70
2023/03/31 00:25:15;;;;;;;24.20;7.93;;;10.40;98.20;;;;;;5033469;28;20242;-72
2023/03/31 00:27:44;;;;;;;19.43;5.80;;;10.40;99.90;;;;;;5033503;28;20413;-71
2023/03/31 00:30:12;;;;;;;17.07;8.03;;;10.40;99.90;;;;;;5031307;28;20905;-71
2023/03/31 00:32:38;;;;;;;17.50;6.60;;;10.40;99.90;;;;;;5032723;28;20914;-71
2023/03/31 00:35:04;;;;;;;16.33;5.87;;;10.30;99.90;;;;;;5033430;28;20505;-74
2023/03/31 00:37:32;;;;;;;16.00;6.00;;;10.30;99.90;;;;;;5033193;28;20814;-72
2023/03/31 00:39:58;;;;;;;16.30;5.07;;;10.30;99.90;;;;;;5033023;28;20413;-73
2023/03/31 00:42:25;;;;;;;26.73;7.47;;;10.30;99.90;;;;;;5032059;28;20429;-72
2023/03/31 00:45:15;;;;;;;20.50;6.07;;;10.30;99.90;;;;;;5033256;28;20777;-71
2023/03/31 00:47:52;;;;;;;19.83;4.70;;;10.40;99.90;;;;;;5033178;28;20404;-73
2023/03/31 00:50:31;;;;;;;12.47;4.43;;;10.40;99.90;;;;;;5030341;28;20791;-71
2023/03/31 00:53:04;;;;;;;12.40;5.13;;;10.40;99.90;;;;;;5032905;28;20513;-73
2023/03/31 00:55:36;;;;;;;13.93;5.13;;;10.40;99.90;;;;;;5033132;28;20395;-72
2023/03/31 00:58:04;;;;;;;14.17;5.27;;;10.30;99.90;;;;;;5032924;28;20379;-72
2023/03/31 01:00:30;;;;;;;14.73;4.80;;;10.30;99.90;;;;;;5032181;28;20440;-72
2023/03/31 01:03:02;;;;;;;15.50;5.87;;;10.40;99.90;;;;;;5033043;28;20993;-71
2023/03/31 01:05:35;;;;;;;26.03;6.30;;;10.40;99.90;;;;;;5031471;28;20423;-73
2023/03/31 01:08:04;;;;;;;19.17;6.30;;;10.40;99.90;;;;;;5033031;28;20405;-73
2023/03/31 01:10:37;;;;;;;13.10;6.60;;;10.40;99.90;;;;;;5038758;28;20973;-73
2023/03/31 01:13:03;;;;;;;16.23;6.37;;;10.40;99.90;;;;;;5052819;28;20520;-72
2023/03/31 01:15:29;;;;;;;13.67;6.80;;;10.40;99.90;;;;;;5051657;28;20421;-72
2023/03/31 01:17:56;;;;;;;15.10;6.83;;;10.40;99.90;;;;;;5045308;28;20433;-72
2023/03/31 01:20:43;;;;;;;12.67;6.30;;;10.40;99.90;;;;;;5052085;28;20459;-73
2023/03/31 01:23:33;;;;;;;20.13;7.83;;;10.40;99.90;;;;;;5036682;28;20471;-73
2023/03/31 01:26:06;;;;;;;19.53;7.70;;;10.40;99.90;;;;;;5031280;28;20888;-71
2023/03/31 01:29:03;;;;;;;22.70;7.30;;;10.40;99.90;;;;;;5032651;28;20413;-74
2023/03/31 01:31:44;;;;;;;20.07;7.07;;;10.40;99.90;;;;;;5047312;28;20418;-72
2023/03/31 01:34:41;;;;;;;18.90;7.83;;;10.40;99.90;;;;;;5032178;28;20411;-72
2023/03/31 01:37:32;;;;;;;14.87;9.30;;;10.40;99.90;;;;;;5032727;28;20385;-73
2023/03/31 01:40:38;;;;;;;22.47;11.07;;;10.40;99.90;;;;;;5032300;28;20409;-73
2023/03/31 01:43:39;;;;;;;18.30;8.50;;;10.50;99.90;;;;;;5030395;28;20943;-73
2023/03/31 01:46:28;;;;;;;24.33;9.03;;;10.50;99.90;;;;;;4951773;28;20491;-72
2023/03/31 01:49:17;;;;;;;18.03;9.00;;;10.50;99.90;;;;;;5028066;28;20437;-73
2023/03/31 01:51:59;;;;;;;17.10;8.30;;;10.40;99.90;;;;;;5033639;28;20531;-73
2023/03/31 01:54:40;;;;;;;28.00;9.87;;;10.50;99.90;;;;;;5035318;28;20387;-72
2023/03/31 01:57:34;;;;;;;15.70;7.67;;;10.50;99.90;;;;;;5036293;28;20434;-73
2023/03/31 02:00:10;;;;;;;20.83;8.73;;;10.50;99.90;;;;;;5038040;28;20901;-71
2023/03/31 02:02:52;;;;;;;24.63;8.17;;;10.50;99.90;;;;;;5035480;28;20466;-72
2023/03/31 02:05:24;;;;;;;19.83;8.30;;;10.50;99.90;;;;;;5035639;28;20464;-72
2023/03/31 02:08:09;;;;;;;21.23;7.50;;;10.50;99.90;;;;;;5035955;28;20377;-72
2023/03/31 02:10:35;;;;;;;17.73;7.27;;;10.50;99.90;;;;;;5034220;28;20446;-71
2023/03/31 02:13:02;;;;;;;24.00;7.73;;;10.40;99.90;;;;;;5036056;28;20429;-72
2023/03/31 02:15:37;;;;;;;23.73;7.17;;;10.40;99.90;;;;;;5036043;28;20763;-73
2023/03/31 02:18:09;;;;;;;14.73;7.27;;;10.50;99.90;;;;;;5044874;28;20418;-73
2023/03/31 02:20:45;;;;;;;19.23;7.33;;;10.40;99.90;;;;;;5054924;28;20909;-71
2023/03/31 02:23:13;;;;;;;22.73;7.53;;;10.50;99.90;;;;;;5055003;28;20530;-73
2023/03/31 02:25:46;;;;;;;25.97;8.50;;;10.50;99.90;;;;;;5055833;28;20380;-73
2023/03/31 02:28:17;;;;;;;21.47;7.07;;;10.50;99.90;;;;;;5055734;28;20480;-73
2023/03/31 02:30:58;;;;;;;17.90;6.33;;;10.50;99.90;;;;;;5046558;28;20418;-71
2023/03/31 02:33:24;;;;;;;18.40;8.07;;;10.40;99.90;;;;;;5035595;28;20418;-73
2023/03/31 02:35:50;;;;;;;21.70;7.20;;;10.40;99.90;;;;;;5034322;28;20400;-72
2023/03/31 02:38:16;;;;;;;21.63;7.30;;;10.50;99.90;;;;;;5035645;28;20178;-72
2023/03/31 02:40:42;;;;;;;17.50;6.90;;;10.40;99.90;;;;;;5033358;28;20504;-73
2023/03/31 02:43:08;;;;;;;17.30;6.67;;;10.40;99.90;;;;;;5034739;28;20893;-72
2023/03/31 02:45:50;;;;;;;16.60;6.70;;;10.40;99.90;;;;;;5034980;28;20266;-73
2023/03/31 02:48:24;;;;;;;23.23;7.47;;;10.40;99.90;;;;;;5035533;28;20171;-73
2023/03/31 02:51:26;;;;;;;14.10;6.60;;;10.30;99.90;;;;;;5034309;28;20408;-71
2023/03/31 02:53:55;;;;;;;26.23;6.53;;;10.40;99.90;;;;;;5035306;28;20421;-71
2023/03/31 02:56:40;;;;;;;21.33;6.90;;;10.40;99.90;;;;;;5033966;28;20905;-73
2023/03/31 02:59:21;;;;;;;15.00;6.97;;;10.40;99.90;;;;;;5034583;28;20417;-73
2023/03/31 03:02:16;;;;;;;13.13;6.17;;;10.40;99.90;;;;;;5033601;28;20406;-71
2023/03/31 03:05:21;;;;;;;26.00;7.43;;;10.40;99.90;;;;;;5034554;28;20403;-70
2023/03/31 03:08:11;;;;;;;19.60;7.17;;;10.40;99.90;;;;;;5033774;28;20421;-73
2023/03/31 03:10:43;;;;;;;26.07;7.53;;;10.40;99.90;;;;;;5033999;28;20380;-73
2023/03/31 03:13:29;;;;;;;18.23;6.50;;;10.40;99.90;;;;;;5034231;28;20925;-72
2023/03/31 03:16:23;;;;;;;23.87;6.33;;;10.30;99.90;;;;;;5033883;28;20393;-71
2023/03/31 03:19:00;;;;;;;19.47;6.97;;;10.40;99.90;;;;;;5035772;28;20426;-73
2023/03/31 03:21:26;;;;;;;8.33;5.50;;;10.40;99.90;;;;;;5033807;28;20434;-71
2023/03/31 03:23:53;;;;;;;18.10;7.40;;;10.40;99.90;;;;;;5033449;28;20435;-74
2023/03/31 03:26:20;;;;;;;17.77;6.50;;;10.40;99.90;;;;;;5034716;28;20414;-72
2023/03/31 03:28:47;;;;;;;21.67;7.30;;;10.40;99.90;;;;;;5040204;28;21073;-74
2023/03/31 03:31:14;;;;;;;20.07;6.13;;;10.40;99.90;;;;;;5053543;28;20400;-72
2023/03/31 03:33:40;;;;;;;14.67;7.10;;;10.40;99.90;;;;;;5054647;28;20376;-71
2023/03/31 03:36:07;;;;;;;26.40;6.20;;;10.40;99.90;;;;;;5054215;28;20401;-73
2023/03/31 03:38:32;;;;;;;18.17;6.30;;;10.40;99.90;;;;;;5053904;28;20409;-73
2023/03/31 03:40:58;;;;;;;16.80;5.70;;;10.40;99.90;;;;;;5052115;28;20417;-73
2023/03/31 03:43:24;;;;;;;23.23;6.40;;;10.40;99.90;;;;;;5035023;28;20222;-71
2023/03/31 03:45:50;;;;;;;18.00;6.47;;;10.30;99.90;;;;;;5034236;28;20179;-73
2023/03/31 03:48:17;;;;;;;17.70;7.10;;;10.40;99.90;;;;;;5034485;28;20175;-72
2023/03/31 03:50:44;;;;;;;23.10;6.70;;;10.40;99.90;;;;;;5033243;28;20407;-72
2023/03/31 03:53:10;;;;;;;24.27;7.17;;;10.30;99.90;;;;;;5033039;28;20428;-72
2023/03/31 03:55:36;;;;;;;14.83;6.53;;;10.30;99.90;;;;;;5033900;28;20431;-72
2023/03/31 03:58:02;;;;;;;18.13;7.07;;;10.40;99.90;;;;;;5032380;28;20432;-72
2023/03/31 04:00:28;;;;;;;24.77;7.47;;;10.40;99.90;;;;;;5035190;28;20679;-73
2023/03/31 04:02:53;;;;;;;18.90;7.10;;;10.30;99.90;;;;;;5052410;28;20210;-73
2023/03/31 04:05:19;;;;;;;18.40;6.47;;;10.30;99.90;;;;;;5053783;28;20174;-72
2023/03/31 04:07:45;;;;;;;23.37;6.43;;;10.30;99.90;;;;;;5053903;28;20193;-73
2023/03/31 04:10:10;;;;;;;21.33;6.70;;;10.30;99.90;;;;;;5048881;28;20193;-75
2023/03/31 04:12:36;;;;;;;18.27;5.70;;;10.30;99.90;;;;;;5033480;28;20241;-75
2023/03/31 04:15:03;;;;;;;17.83;6.67;;;10.30;99.90;;;;;;5033199;28;20179;-75
2023/03/31 04:17:31;;;;;;;23.80;6.43;;;10.30;99.90;;;;;;5033102;28;20651;-74
2023/03/31 04:20:00;;;;;;;18.97;5.53;;;10.20;99.90;;;;;;5033395;28;20439;-72
2023/03/31 04:22:34;;;;;;;29.50;8.00;;;10.30;99.90;;;;;;5032789;28;20427;-72
2023/03/31 04:25:04;;;;;;;14.50;4.90;;;10.20;99.90;;;;;;5036294;28;20497;-75
2023/03/31 04:27:33;;;;;;;13.40;6.67;;;10.30;99.90;;;;;;5034584;28;20415;-72
2023/03/31 04:29:59;;;;;;;17.03;5.37;;;10.20;99.90;;;;;;5033197;28;20423;-71
2023/03/31 04:32:25;;;;;;;17.10;6.23;;;10.20;99.90;;;;;;5032745;28;20463;-73
2023/03/31 04:34:50;;;;;;;18.73;6.43;;;10.20;99.90;;;;;;5032924;28;20230;-73
2023/03/31 04:37:16;;;;;;;13.73;5.97;;;10.20;99.90;;;;;;5033239;28;20206;-70
2023/03/31 04:39:45;;;;;;;20.67;6.53;;;10.20;99.90;;;;;;5032788;28;20643;-73
2023/03/31 04:42:11;;;;;;;23.20;6.00;;;10.30;99.90;;;;;;5032299;28;20495;-75
2023/03/31 04:44:37;;;;;;;28.47;6.77;;;10.30;99.90;;;;;;5032040;28;20408;-73
2023/03/31 04:47:05;;;;;;;27.23;6.90;;;10.20;99.90;;;;;;5032368;28;20414;-74
2023/03/31 04:49:32;;;;;;;19.60;6.23;;;10.30;99.90;;;;;;5033236;28;20172;-73
2023/03/31 04:51:58;;;;;;;16.60;4.87;;;10.30;99.90;;;;;;5031625;28;20420;-75
2023/03/31 04:54:23;;;;;;;16.57;6.10;;;10.30;99.90;;;;;;5032515;28;20420;-74
2023/03/31 04:56:49;;;;;;;21.13;7.17;;;10.30;99.90;;;;;;5032956;28;20253;-71
2023/03/31 04:59:15;;;;;;;17.17;6.07;;;10.20;99.90;;;;;;5033128;28;20168;-74
2023/03/31 05:01:43;;;;;;;19.50;8.87;;;10.20;99.90;;;;;;5030870;28;20203;-73
2023/03/31 05:04:09;;;;;;;13.73;5.40;;;10.20;99.90;;;;;;5050765;28;20204;-75
2023/03/31 05:06:35;;;;;;;31.47;9.53;;;10.20;99.90;;;;;;5051876;28;20483;-71
2023/03/31 05:09:01;;;;;;;18.50;5.70;;;10.20;99.90;;;;;;5052731;28;20467;-74
2023/03/31 05:11:27;;;;;;;16.27;6.17;;;10.20;99.90;;;;;;5051555;28;20194;-73
2023/03/31 05:13:53;;;;;;;14.63;4.97;;;10.20;99.90;;;;;;5052805;28;20174;-71
2023/03/31 05:16:19;;;;;;;14.17;5.77;;;10.20;99.90;;;;;;5037661;28;20418;-71
2023/03/31 05:18:45;;;;;;;24.00;5.30;;;10.20;99.90;;;;;;5032487;28;20416;-72
2023/03/31 05:21:16;;;;;;;16.30;5.03;;;10.20;99.90;;;;;;5031939;28;20172;-71
2023/03/31 05:23:42;;;;;;;15.70;4.83;;;10.20;99.90;;;;;;5032728;28;20515;-72
2023/03/31 05:26:09;;;;;;;15.43;6.20;;;10.20;99.90;;;;;;5032861;28;20498;-71
2023/03/31 05:28:35;;;;;;;21.60;4.67;;;10.20;99.90;;;;;;5035299;28;21040;-74
2023/03/31 05:31:02;;;;;;;23.03;6.27;;;10.20;99.90;;;;;;5052048;28;20758;-71
2023/03/31 05:33:28;;;;;;;20.73;5.50;;;10.20;99.90;;;;;;5054369;28;20438;-73
2023/03/31 05:35:55;;;;;;;14.70;5.10;;;10.20;99.90;;;;;;5037851;28;20908;-74
2023/03/31 05:38:21;;;;;;;12.73;4.97;;;10.20;99.90;;;;;;5036714;28;20877;-72
2023/03/31 05:40:47;;;;;;;17.93;5.53;;;10.20;99.90;;;;;;5035803;28;20396;-74
2023/03/31 05:43:13;;;;;;;23.13;6.77;;;10.20;99.90;;;;;;5036462;28;20453;-74
2023/03/31 05:45:38;;;;;;;17.63;6.47;;;10.20;99.90;;;;;;5036061;28;20881;-74
2023/03/31 05:48:05;;;;;;;18.37;6.60;;;10.20;99.90;;;;;;5035796;28;20556;-74
2023/03/31 05:50:31;;;;;;;15.97;4.80;;;10.30;99.90;;;;;;5035585;28;20190;-74
2023/03/31 05:52:58;;;;;;;20.83;5.70;;;10.30;99.90;;;;;;5036564;28;20412;-74
2023/03/31 05:55:24;;;;;;;20.60;5.40;;;10.30;99.90;;;;;;5036398;28;20393;-71
2023/03/31 05:57:49;;;;;;;21.97;5.40;;;10.30;99.90;;;;;;5036281;28;20406;-74
2023/03/31 06:00:16;;;;;;;14.70;5.00;;;10.30;99.90;;;;;;5033698;28;20430;-70
2023/03/31 06:02:42;;;;;;;16.80;4.20;;;10.30;99.90;;;;;;5035898;28;20203;-71
2023/03/31 06:05:08;;;;;;;13.33;6.00;;;10.40;99.90;;;;;;5036187;28;20432;-70
2023/03/31 06:07:33;;;;;;;24.43;7.70;;;10.40;99.90;;;;;;5036233;28;20164;-74
2023/03/31 06:09:59;;;;;;;20.70;6.17;;;10.40;99.90;;;;;;5035765;28;20617;-71
2023/03/31 06:12:25;;;;;;;17.53;5.47;;;10.40;99.90;;;;;;5035345;28;20242;-74
2023/03/31 06:14:50;;;;;;;14.87;5.07;;;10.40;99.90;;;;;;5035622;28;20691;-71
2023/03/31 06:17:16;;;;;;;14.60;6.77;;;10.40;99.90;;;;;;5034694;28;20641;-73
2023/03/31 06:19:42;;;;;;;12.33;4.40;;;10.40;99.90;;;;;;5035433;28;20183;-73
2023/03/31 06:22:08;;;;;;;28.57;6.80;;;10.40;99.90;;;;;;5034836;28;20541;-72
2023/03/31 06:24:33;;;;;;;16.30;5.50;;;10.40;99.90;;;;;;5035929;28;20160;-72
2023/03/31 06:27:00;;;;;;;20.30;6.43;;;10.40;99.90;;;;;;5036000;28;20179;-72
2023/03/31 06:29:26;;;;;;;19.00;6.23;;;10.40;99.90;;;;;;5035569;28;20168;-73
2023/03/31 06:31:52;;;;;;;19.97;6.13;;;10.40;99.90;;;;;;5034638;28;20416;-74
2023/03/31 06:34:18;;;;;;;20.97;5.57;;;10.40;99.90;;;;;;5034359;28;20816;-71
2023/03/31 06:36:43;;;;;;;16.63;5.40;;;10.40;99.90;;;;;;5035011;28;20222;-71
2023/03/31 06:39:09;;;;;;;20.57;5.93;;;10.40;99.90;;;;;;5043339;28;20391;-71
2023/03/31 06:41:35;;;;;;;13.17;5.23;;;10.40;99.90;;;;;;5053319;28;20194;-73
2023/03/31 06:44:01;;;;;;;17.57;6.07;;;10.50;99.90;;;;;;5054320;28;20246;-71
2023/03/31 06:46:27;;;;;;;14.40;5.73;;;10.60;99.90;;;;;;5050001;28;20545;-74
2023/03/31 06:48:53;;;;;;;16.90;6.50;;;10.60;99.90;;;;;;5035489;28;20264;-71
2023/03/31 06:51:18;;;;;;;12.13;4.93;;;10.60;99.90;;;;;;5034345;28;20180;-71
2023/03/31 06:53:44;;;;;;;16.30;5.63;;;10.60;99.90;;;;;;5034844;28;21004;-73
2023/03/31 06:56:10;;;;;;;16.80;5.67;;;10.60;99.90;;;;;;5035323;28;20246;-74
2023/03/31 06:58:36;;;;;;;29.30;6.80;;;10.60;99.90;;;;;;5033991;28;20180;-74
2023/03/31 07:01:03;;;;;;;18.27;5.60;;;10.50;99.90;;;;;;5036976;28;20175;-73
2023/03/31 07:03:29;;;;;;;18.13;5.47;;;10.60;99.90;;;;;;5035040;28;20211;-74
2023/03/31 07:05:55;;;;;;;18.47;5.40;;;10.60;99.90;;;;;;5035110;28;20380;-74
2023/03/31 07:08:22;;;;;;;18.50;7.00;;;10.60;99.90;;;;;;5034936;28;20377;-72
2023/03/31 07:10:52;;;;;;;18.03;5.77;;;10.60;99.90;;;;;;5032934;28;20865;-70
2023/03/31 07:13:18;;;;;;;12.17;5.87;;;10.60;99.90;;;;;;5032632;28;20503;-75
2023/03/31 07:15:47;;;;;;;18.17;6.00;;;10.60;99.90;;;;;;5035198;28;20492;-75
2023/03/31 07:18:14;;;;;;;13.33;5.27;;;10.70;99.90;;;;;;5034993;28;20405;-72
2023/03/31 07:20:41;;;;;;;19.97;6.53;;;10.70;99.90;;;;;;5033839;28;20404;-73
2023/03/31 07:23:07;;;;;;;15.73;6.20;;;10.80;99.90;;;;;;5034635;28;20450;-73
2023/03/31 07:25:34;;;;;;;12.40;6.00;;;10.80;99.90;;;;;;5034937;28;20369;-74
2023/03/31 07:28:00;;;;;;;23.97;7.37;;;10.80;99.90;;;;;;5044559;28;20494;-71
2023/03/31 07:30:26;;;;;;;16.83;6.50;;;10.80;99.90;;;;;;5051494;28;20464;-75
2023/03/31 07:32:53;;;;;;;15.30;6.83;;;10.80;99.90;;;;;;5053891;28;20832;-71
2023/03/31 07:35:20;;;;;;;16.77;6.90;;;10.90;99.90;;;;;;5054464;28;20467;-73
2023/03/31 07:37:47;;;;;;;24.37;7.47;;;11.00;99.90;;;;;;5054414;28;20441;-72
2023/03/31 07:40:26;;;;;;;17.67;7.93;;;11.00;99.90;;;;;;5048153;28;20519;-75
2023/03/31 07:42:52;;;;;;;20.27;9.07;;;11.00;99.90;;;;;;5034239;28;20424;-73
2023/03/31 07:45:23;;;;;;;15.50;8.57;;;11.10;99.90;;;;;;5034294;28;20369;-74
2023/03/31 07:47:49;;;;;;;25.13;9.60;;;11.20;99.90;;;;;;5034268;28;20381;-73
2023/03/31 07:50:15;;;;;;;23.67;8.93;;;11.20;99.90;;;;;;5033234;28;20385;-71
2023/03/31 07:52:41;;;;;;;16.70;6.90;;;11.30;99.90;;;;;;5032293;28;20475;-73
2023/03/31 07:55:08;;;;;;;18.73;9.03;;;11.30;99.90;;;;;;5033519;28;20518;-72
2023/03/31 07:57:35;;;;;;;20.03;8.80;;;11.30;99.90;;;;;;5034439;28;20412;-71
2023/03/31 08:00:06;;;;;;;14.50;8.37;;;11.30;99.90;;;;;;5033808;28;20432;-72
2023/03/31 08:02:31;;;;;;;16.80;10.00;;;11.40;99.90;;;;;;5033824;28;20412;-72
2023/03/31 08:04:57;;;;;;;28.10;10.20;;;11.50;99.90;;;;;;5033998;28;20384;-72
2023/03/31 08:07:24;;;;;;;20.10;11.00;;;11.50;99.90;;;;;;5033079;28;20168;-71
2023/03/31 08:09:50;;;;;;;17.57;9.03;;;11.60;99.90;;;;;;5033356;28;20598;-74
2023/03/31 08:12:16;;;;;;;20.73;9.80;;;11.60;99.90;;;;;;5032099;28;20446;-74
2023/03/31 08:14:42;;;;;;;15.70;9.70;;;11.60;99.90;;;;;;5033799;28;20171;-74
2023/03/31 08:17:09;;;;;;;21.50;10.13;;;11.60;99.90;;;;;;5033672;28;20652;-73
2023/03/31 08:19:35;;;;;;;17.83;10.50;;;11.70;99.90;;;;;;5033844;28;20167;-74
2023/03/31 08:22:01;;;;;;;16.43;10.40;;;11.70;99.90;;;;;;5043012;28;20434;-73
2023/03/31 08:24:26;;;;;;;19.20;10.37;;;11.80;99.90;;;;;;5053522;28;20394;-71
2023/03/31 08:26:52;;;;;;;27.10;11.20;;;11.80;99.90;;;;;;5053014;28;20375;-71
2023/03/31 08:29:18;;;;;;;17.90;9.37;;;11.90;99.90;;;;;;5053366;28;20574;-70
2023/03/31 08:31:44;;;;;;;23.27;8.53;;;12.00;99.90;;;;;;5052175;28;20417;-71
2023/03/31 08:34:09;;;;;;;22.43;9.20;;;12.00;99.90;;;;;;5034388;28;20547;-72
2023/03/31 08:36:36;;;;;;;14.60;8.37;;;12.20;99.90;;;;;;5052441;28;20240;-72
2023/03/31 08:39:01;;;;;;;16.23;8.73;;;12.10;99.90;;;;;;5047308;28;20604;-74
2023/03/31 08:42:04;;;;;;;12.40;8.13;;;12.20;99.90;;;;;;5038353;28;20521;-73
2023/03/31 08:44:52;;;;;;;15.17;7.90;;;12.30;99.90;;;;;;5047318;28;20198;-73
2023/03/31 08:47:22;;;;;;;16.67;8.47;;;12.40;99.90;;;;;;5039510;28;20987;-74
2023/03/31 08:49:55;;;;;;;18.20;8.80;;;12.60;99.90;;;;;;5040509;28;20963;-73
2023/03/31 08:52:28;;;;;;;30.90;10.40;;;12.50;99.90;;;;;;5036999;28;20523;-75
2023/03/31 08:55:00;;;;;;;17.17;7.67;;;12.60;99.90;;;;;;5033993;28;20889;-71
2023/03/31 08:57:36;;;;;;;17.37;7.30;;;12.60;99.90;;;;;;5038286;28;20791;-73
2023/03/31 09:00:05;;;;;;;21.67;9.60;;;12.60;99.90;;;;;;5032814;28;20361;-74
2023/03/31 09:02:47;;;;;;;14.90;8.30;;;12.60;86.90;;;;;;5032155;28;20452;-75
2023/03/31 09:05:22;;;;;;;12.70;8.40;;;12.50;82.30;;;;;;5033091;28;20464;-74
2023/03/31 09:07:55;;;;;;;10.70;7.60;;;12.50;58.30;;;;;;5033089;28;20400;-74
2023/03/31 09:10:41;;;;;;;15.47;8.20;;;12.40;34.40;;;;;;5039154;28;20482;-69
2023/03/31 09:13:35;;;;;;;21.20;9.20;;;12.40;28.00;;;;;;5052811;28;20408;-71
2023/03/31 09:16:12;;;;;;;19.40;8.80;;;12.40;22.10;;;;;;5052938;28;20437;-71
2023/03/31 09:18:39;;;;;;;16.57;8.33;;;12.50;1.00;;;;;;5052566;28;20421;-73
2023/03/31 09:21:29;;;;;;;15.00;7.73;;;12.50;1.00;;;;;;5051721;28;20393;-71
2023/03/31 09:23:58;;;;;;;11.00;7.83;;;12.50;1.00;;;;;;5039215;28;20464;-72
2023/03/31 09:26:39;;;;;;;19.10;8.43;;;12.30;1.00;;;;;;5051544;28;20474;-75
2023/03/31 09:29:17;;;;;;;19.53;9.00;;;12.30;1.00;;;;;;5052724;28;20885;-71
2023/03/31 09:31:44;;;;;;;16.30;8.43;;;12.30;1.00;;;;;;5050726;28;20445;-70
2023/03/31 09:34:23;;;;;;;16.20;8.53;;;12.40;1.00;;;;;;5052788;28;20422;-74
2023/03/31 09:36:49;;;;;;;17.80;9.63;;;12.40;1.00;;;;;;5045187;28;20433;-74
2023/03/31 09:39:15;;;;;;;15.50;8.90;;;12.40;1.00;;;;;;5032689;28;20469;-74
2023/03/31 09:41:46;;;;;;;12.70;8.50;;;12.40;1.00;;;;;;5031650;28;20433;-74
2023/03/31 09:44:31;;;;;;;16.20;9.80;;;12.50;1.00;;;;;;5032659;28;20283;-75
2023/03/31 09:47:02;;;;;;;19.50;9.07;;;12.60;1.00;;;;;;5032771;28;20895;-76
2023/03/31 09:49:32;;;;;;;17.33;8.80;;;12.70;1.00;;;;;;5032707;28;20399;-73
2023/03/31 09:52:03;;;;;;;12.23;8.60;;;12.70;1.00;;;;;;5029623;28;20813;-72
2023/03/31 09:54:40;;;;;;;27.87;11.60;;;12.80;1.00;;;;;;5032043;28;20402;-73
2023/03/31 09:57:14;;;;;;;17.73;9.73;;;12.70;1.00;;;;;;5046201;28;20407;-74
2023/03/31 09:59:42;;;;;;;20.23;9.03;;;12.80;1.00;;;;;;5052471;28;20908;-74
2023/03/31 10:02:33;;;;;;;13.53;8.97;;;12.80;1.00;;;;;;5050096;28;20487;-72
2023/03/31 10:04:59;;;;;;;15.43;9.90;;;12.80;1.00;;;;;;5052505;28;20401;-72
2023/03/31 10:07:25;;;;;;;16.60;8.33;;;12.80;1.00;;;;;;5052416;28;20368;-75
2023/03/31 10:09:53;;;;;;;15.80;8.33;;;12.70;1.00;;;;;;5041750;28;20389;-70
2023/03/31 10:12:23;;;;;;;19.70;9.13;;;12.70;1.00;;;;;;5042445;28;20540;-71
2023/03/31 10:14:51;;;;;;;14.50;7.80;;;12.70;1.00;;;;;;5032959;28;20402;-70
2023/03/31 10:17:19;;;;;;;24.07;8.30;;;12.60;1.00;;;;;;5036039;28;20398;-70
2023/03/31 10:19:50;;;;;;;13.27;8.57;;;12.70;1.00;;;;;;5035997;28;20426;-71
2023/03/31 10:22:41;;;;;;;13.90;8.60;;;12.60;1.00;;;;;;5033920;28;20418;-75
2023/03/31 10:25:19;;;;;;;16.40;9.30;;;12.60;1.00;;;;;;5035318;28;20424;-71
2023/03/31 10:27:50;;;;;;;16.30;8.67;;;12.50;1.00;;;;;;5035771;28;20426;-71
2023/03/31 10:30:24;;;;;;;14.50;8.60;;;12.50;1.00;;;;;;5034389;28;20926;-74
2023/03/31 10:32:50;;;;;;;11.63;8.27;;;12.50;1.00;;;;;;5035684;28;20426;-74
2023/03/31 10:35:31;;;;;;;14.23;9.00;;;12.40;1.00;;;;;;5035726;28;20909;-70
2023/03/31 10:38:01;;;;;;;18.90;10.00;;;12.40;1.00;;;;;;5035066;28;20441;-70
2023/03/31 10:40:30;;;;;;;13.00;7.37;;;12.40;1.00;;;;;;5033162;28;20794;-73
2023/03/31 10:43:13;;;;;;;9.23;8.30;;;12.50;1.00;;;;;;5035598;28;20449;-70
2023/03/31 10:46:01;;;;;;;11.67;8.33;;;12.50;1.00;;;;;;5035583;28;20962;-75
2023/03/31 10:48:33;;;;;;;10.30;7.27;;;12.60;1.00;;;;;;5033679;28;20501;-74
2023/03/31 10:51:03;;;;;;;11.87;8.27;;;12.60;1.00;;;;;;5034605;28;20472;-75
2023/03/31 10:53:29;;;;;;;13.93;8.00;;;12.60;1.00;;;;;;5047004;28;20518;-74
2023/03/31 10:56:08;;;;;;;11.10;6.90;;;12.70;1.00;;;;;;5055249;28;20484;-70
2023/03/31 10:58:50;;;;;;;8.87;7.13;;;12.70;1.00;;;;;;5055116;28;20258;-70
2023/03/31 11:01:35;;;;;;;11.70;8.10;;;12.80;1.00;;;;;;5053120;28;20383;-74
2023/03/31 11:04:42;;;;;;;11.00;6.40;;;12.80;1.00;;;;;;5054958;28;20441;-69
2023/03/31 11:07:19;;;;;;;8.67;5.47;;;12.80;1.00;;;;;;5051708;28;20415;-72
2023/03/31 11:09:52;;;;;;;6.20;5.37;;;12.80;1.00;;;;;;5034890;28;20913;-74
2023/03/31 11:12:23;;;;;;;6.40;5.10;;;12.80;1.00;;;;;;5034169;28;20410;-71
2023/03/31 11:15:18;;;;;;;12.83;5.77;;;12.80;1.00;;;;;;5034988;28;20497;-71
2023/03/31 11:17:53;;;;;;;10.33;6.23;;;12.70;1.00;;;;;;5034887;28;20803;-72
2023/03/31 11:20:48;;;;;;;7.63;6.50;;;12.40;1.00;;;;;;5034028;28;20402;-71
2023/03/31 11:23:23;;;;;;;13.20;7.20;;;12.40;1.00;;;;;;5034697;28;20454;-73
2023/03/31 11:25:49;;;;;;;10.10;5.27;;;12.30;1.00;;;;;;5047430;28;20432;-73
2023/03/31 11:28:36;;;;;;;6.50;5.27;;;12.40;1.00;;;;;;5054052;28;20372;-73
2023/03/31 11:31:26;;;;;;;8.90;5.00;;;12.40;1.00;;;;;;5053727;28;20163;-73
2023/03/31 11:34:13;;;;;;;8.30;5.17;;;12.50;1.00;;;;;;5054408;28;20368;-72
2023/03/31 11:36:57;;;;;;;5.73;4.80;;;12.50;1.00;;;;;;5053460;28;20751;-74
2023/03/31 11:39:41;;;;;;;7.30;5.20;;;12.60;1.00;;;;;;5045154;28;20961;-73
2023/03/31 11:42:18;;;;;;;9.60;4.80;;;12.70;1.00;;;;;;5053272;28;20908;-72
2023/03/31 11:44:51;;;;;;;6.73;4.90;;;12.70;1.00;;;;;;5054227;28;20401;-74
2023/03/31 11:47:33;;;;;;;4.83;4.43;;;12.70;1.00;;;;;;5053739;28;20402;-72
2023/03/31 11:50:21;;;;;;;9.37;4.43;;;12.60;1.00;;;;;;5052577;28;20413;-73
2023/03/31 11:53:07;;;;;;;3.90;3.60;;;12.60;1.00;;;;;;5051697;28;20487;-73
2023/03/31 11:55:34;;;;;;;4.47;3.50;;;12.60;1.00;;;;;;5053141;28;20413;-74
2023/03/31 11:58:10;;;;;;;4.97;3.37;;;12.70;1.00;;;;;;5054043;28;20410;-73
2023/03/31 12:00:49;;;;;;;4.47;3.30;;;12.80;1.00;;;;;;5052035;28;20428;-72
2023/03/31 12:03:32;;;;;;;5.00;3.77;;;12.80;1.00;;;;;;5051971;28;20423;-72
2023/03/31 12:06:15;;;;;;;5.17;3.60;;;12.90;1.00;;;;;;5046876;28;20421;-73
2023/03/31 12:08:50;;;;;;;6.20;4.23;;;13.00;1.00;;;;;;5047848;28;20430;-72
2023/03/31 12:11:20;;;;;;;4.00;3.60;;;13.10;1.00;;;;;;5052842;28;20402;-74
2023/03/31 12:14:11;;;;;;;4.30;3.73;;;13.00;1.00;;;;;;5052795;28;20731;-74
2023/03/31 12:16:44;;;;;;;6.20;4.20;;;12.90;1.00;;;;;;5052486;28;20417;-72
2023/03/31 12:19:15;;;;;;;8.53;3.00;;;12.90;1.00;;;;;;5053601;28;20438;-73
2023/03/31 12:21:47;;;;;;;4.23;3.03;;;13.10;1.00;;;;;;5052091;28;20429;-73
2023/03/31 12:24:13;;;;;;;2.93;2.50;;;13.10;1.00;;;;;;5035111;28;20453;-73
2023/03/31 12:26:38;;;;;;;5.10;2.80;;;13.10;1.00;;;;;;5033632;28;20886;-73
2023/03/31 12:29:15;;;;;;;2.47;2.27;;;13.10;1.00;;;;;;5033478;28;20805;-74
2023/03/31 12:31:43;;;;;;;4.83;2.43;;;13.20;1.00;;;;;;5032558;28;20188;-73
2023/03/31 12:34:15;;;;;;;2.93;2.30;;;13.30;1.00;;;;;;5033505;28;20521;-73
2023/03/31 12:37:16;;;;;;;2.97;2.67;;;13.40;1.00;;;;;;5032127;28;20985;-74
2023/03/31 12:39:56;;;;;;;3.30;2.73;;;13.40;1.00;;;;;;5047339;28;20435;-73
2023/03/31 12:42:34;;;;;;;3.30;2.90;;;13.30;1.00;;;;;;5052438;28;20436;-71
2023/03/31 12:45:05;;;;;;;3.67;2.83;;;13.30;1.00;;;;;;5053247;28;20482;-72
2023/03/31 12:47:40;;;;;;;2.97;2.77;;;13.40;1.00;;;;;;5052826;28;20807;-72
2023/03/31 12:50:30;;;;;;;3.40;3.10;;;13.40;1.00;;;;;;5034504;28;20428;-74
2023/03/31 12:53:17;;;;;;;3.20;3.00;;;13.60;1.00;;;;;;5032640;28;20450;-72
2023/03/31 12:55:54;;;;;;;6.70;3.83;;;13.60;1.00;;;;;;5049487;28;20429;-72
2023/03/31 12:58:28;;;;;;;4.10;3.80;;;13.60;1.00;;;;;;5034841;28;20406;-72
2023/03/31 13:01:08;;;;;;;3.90;3.27;;;13.60;1.00;;;;;;5042758;28;20584;-72
2023/03/31 13:03:34;;;;;;;3.30;3.10;;;13.60;1.00;;;;;;5047837;28;20450;-71
2023/03/31 13:06:04;;;;;;;5.07;4.10;;;13.60;1.00;;;;;;5032824;28;20561;-70